sensor_id;sensor_type;location;lat;lon;timestamp;pressure;altitude;pressure_sealevel;temperature;humidity
25498;BME280;13406;53.380;7.226;2023-04-10T00:00:30;102360.56;;;8.19;100.00
25498;BME280;13406;53.380;7.226;2023-04-10T00:02:58;102319.31;;;7.93;100.00
25498;BME280;13406;53.380;7.226;2023-04-10T00:05:25;102342.72;;;8.19;100.00
25498;BME280;13406;53.380;7.226;2023-04-10T00:07:51;102419.34;;;8.48;100.00
25498;BME280;13406;53.380;7.226;2023-04-10T00:10:17;102418.38;;;8.39;100.00
25498;BME280;13406;53.380;7.226;2023-04-10T00:12:43;102274.56;;;7.48;100.00
25498;BME280;13406;53.380;7.226;2023-04-10T00:15:09;102373.47;;;8.33;100.00
25498;BME280;13406;53.380;7.226;2023-04-10T00:17:35;102371.53;;;8.25;100.00
25498;BME280;13406;53.380;7.226;2023-04-10T00:20:00;102342.06;;;7.98;100.00
25498;BME280;13406;53.380;7.226;2023-04-10T00:22:26;102417.94;;;8.34;100.00
25498;BME280;13406;53.380;7.226;2023-04-10T00:24:51;102369.34;;;8.01;100.00
25498;BME280;13406;53.380;7.226;2023-04-10T00:27:17;102426.50;;;8.37;100.00
25498;BME280;13406;53.380;7.226;2023-04-10T00:29:42;102308.56;;;7.56;100.00
25498;BME280;13406;53.380;7.226;2023-04-10T00:32:08;102404.75;;;8.23;100.00
25498;BME280;13406;53.380;7.226;2023-04-10T00:34:33;102419.72;;;8.53;100.00
25498;BME280;13406;53.380;7.226;2023-04-10T00:36:59;102396.56;;;8.34;100.00
25498;BME280;13406;53.380;7.226;2023-04-10T00:39:24;102414.66;;;8.50;100.00
25498;BME280;13406;53.380;7.226;2023-04-10T00:41:50;102381.53;;;8.23;100.00
25498;BME280;13406;53.380;7.226;2023-04-10T00:44:15;102352.75;;;7.98;100.00
25498;BME280;13406;53.380;7.226;2023-04-10T00:46:41;102401.19;;;8.42;100.00
25498;BME280;13406;53.380;7.226;2023-04-10T00:49:06;102384.09;;;8.15;100.00
25498;BME280;13406;53.380;7.226;2023-04-10T00:51:33;102372.81;;;8.21;100.00
25498;BME280;13406;53.380;7.226;2023-04-10T00:54:00;102346.16;;;8.02;100.00
25498;BME280;13406;53.380;7.226;2023-04-10T00:56:27;102390.91;;;8.37;100.00
25498;BME280;13406;53.380;7.226;2023-04-10T00:58:55;102390.19;;;8.54;100.00
25498;BME280;13406;53.380;7.226;2023-04-10T01:01:20;102380.97;;;8.39;100.00
25498;BME280;13406;53.380;7.226;2023-04-10T01:03:46;102360.56;;;8.19;100.00
25498;BME280;13406;53.380;7.226;2023-04-10T01:06:34;102371.50;;;8.35;100.00
25498;BME280;13406;53.380;7.226;2023-04-10T01:11:53;102328.91;;;8.24;100.00
25498;BME280;13406;53.380;7.226;2023-04-10T01:14:29;102357.28;;;8.34;100.00
25498;BME280;13406;53.380;7.226;2023-04-10T01:17:03;102306.44;;;8.07;100.00
25498;BME280;13406;53.380;7.226;2023-04-10T01:22:19;102339.09;;;8.10;100.00
25498;BME280;13406;53.380;7.226;2023-04-10T01:27:49;102350.25;;;7.96;100.00
25498;BME280;13406;53.380;7.226;2023-04-10T01:30:22;102348.66;;;8.13;100.00
25498;BME280;13406;53.380;7.226;2023-04-10T01:32:48;102366.66;;;8.11;100.00
25498;BME280;13406;53.380;7.226;2023-04-10T01:35:15;102348.66;;;8.03;100.00
25498;BME280;13406;53.380;7.226;2023-04-10T01:37:42;102276.94;;;7.52;100.00
25498;BME280;13406;53.380;7.226;2023-04-10T01:40:14;102245.25;;;7.29;100.00
25498;BME280;13406;53.380;7.226;2023-04-10T01:42:43;102311.09;;;7.58;100.00
25498;BME280;13406;53.380;7.226;2023-04-10T01:45:15;102341.94;;;7.89;100.00
25498;BME280;13406;53.380;7.226;2023-04-10T01:47:42;102349.00;;;7.90;100.00
25498;BME280;13406;53.380;7.226;2023-04-10T01:50:09;102199.47;;;7.14;100.00
25498;BME280;13406;53.380;7.226;2023-04-10T01:52:37;102269.34;;;7.57;100.00
25498;BME280;13406;53.380;7.226;2023-04-10T01:55:05;102356.00;;;7.91;100.00
25498;BME280;13406;53.380;7.226;2023-04-10T01:57:32;102350.53;;;7.93;100.00
25498;BME280;13406;53.380;7.226;2023-04-10T02:00:00;102272.00;;;7.66;100.00
25498;BME280;13406;53.380;7.226;2023-04-10T02:02:29;102307.03;;;8.10;100.00
25498;BME280;13406;53.380;7.226;2023-04-10T02:04:55;102219.09;;;7.42;100.00
25498;BME280;13406;53.380;7.226;2023-04-10T02:07:43;102324.50;;;7.95;100.00
25498;BME280;13406;53.380;7.226;2023-04-10T02:12:49;102202.72;;;7.08;100.00
25498;BME280;13406;53.380;7.226;2023-04-10T02:15:19;102329.59;;;7.88;100.00
25498;BME280;13406;53.380;7.226;2023-04-10T02:17:46;102316.66;;;7.84;100.00
25498;BME280;13406;53.380;7.226;2023-04-10T02:20:13;102193.28;;;7.23;100.00
25498;BME280;13406;53.380;7.226;2023-04-10T02:22:40;102245.09;;;7.31;100.00
25498;BME280;13406;53.380;7.226;2023-04-10T02:25:08;102332.41;;;7.77;100.00
25498;BME280;13406;53.380;7.226;2023-04-10T02:27:35;102289.44;;;7.70;100.00
25498;BME280;13406;53.380;7.226;2023-04-10T02:30:02;102263.06;;;7.38;100.00
25498;BME280;13406;53.380;7.226;2023-04-10T02:32:28;102269.81;;;7.33;100.00
25498;BME280;13406;53.380;7.226;2023-04-10T02:34:54;102323.91;;;8.01;100.00
25498;BME280;13406;53.380;7.226;2023-04-10T02:37:20;102306.28;;;7.71;100.00
25498;BME280;13406;53.380;7.226;2023-04-10T02:39:46;102326.22;;;7.86;100.00
25498;BME280;13406;53.380;7.226;2023-04-10T02:42:11;102238.22;;;7.38;100.00
25498;BME280;13406;53.380;7.226;2023-04-10T02:44:37;102270.50;;;7.44;100.00
25498;BME280;13406;53.380;7.226;2023-04-10T02:47:04;102304.91;;;7.67;100.00
25498;BME280;13406;53.380;7.226;2023-04-10T02:49:33;102320.19;;;7.84;100.00
25498;BME280;13406;53.380;7.226;2023-04-10T02:52:01;102316.69;;;7.74;100.00
25498;BME280;13406;53.380;7.226;2023-04-10T02:54:27;102311.22;;;7.66;100.00
25498;BME280;13406;53.380;7.226;2023-04-10T02:56:53;102158.38;;;6.59;100.00
25498;BME280;13406;53.380;7.226;2023-04-10T02:59:18;102268.25;;;7.40;100.00
25498;BME280;13406;53.380;7.226;2023-04-10T03:01:45;102306.16;;;7.63;100.00
25498;BME280;13406;53.380;7.226;2023-04-10T03:04:11;102249.91;;;7.08;100.00
25498;BME280;13406;53.380;7.226;2023-04-10T03:06:37;102318.84;;;7.61;100.00
25498;BME280;13406;53.380;7.226;2023-04-10T03:09:03;102260.53;;;7.37;100.00
25498;BME280;13406;53.380;7.226;2023-04-10T03:11:28;102328.38;;;7.73;100.00
25498;BME280;13406;53.380;7.226;2023-04-10T03:13:55;102328.53;;;7.42;100.00
25498;BME280;13406;53.380;7.226;2023-04-10T03:16:22;102305.50;;;6.93;100.00
25498;BME280;13406;53.380;7.226;2023-04-10T03:18:48;102297.34;;;6.75;100.00
25498;BME280;13406;53.380;7.226;2023-04-10T03:21:13;102332.34;;;7.30;100.00
25498;BME280;13406;53.380;7.226;2023-04-10T03:23:39;102347.66;;;7.47;100.00
25498;BME280;13406;53.380;7.226;2023-04-10T03:26:04;102243.44;;;6.81;100.00
25498;BME280;13406;53.380;7.226;2023-04-10T03:28:30;102301.56;;;7.16;100.00
25498;BME280;13406;53.380;7.226;2023-04-10T03:30:57;102340.34;;;7.59;100.00
25498;BME280;13406;53.380;7.226;2023-04-10T03:33:22;102231.22;;;7.08;100.00
25498;BME280;13406;53.380;7.226;2023-04-10T03:35:47;102319.13;;;7.29;100.00
25498;BME280;13406;53.380;7.226;2023-04-10T03:38:13;102326.16;;;7.39;100.00
25498;BME280;13406;53.380;7.226;2023-04-10T03:40:38;102341.31;;;7.48;100.00
25498;BME280;13406;53.380;7.226;2023-04-10T03:43:04;102216.19;;;6.58;100.00
25498;BME280;13406;53.380;7.226;2023-04-10T03:45:30;102244.41;;;6.99;100.00
25498;BME280;13406;53.380;7.226;2023-04-10T03:47:55;102245.84;;;6.74;100.00
25498;BME280;13406;53.380;7.226;2023-04-10T03:50:21;102319.28;;;7.27;100.00
25498;BME280;13406;53.380;7.226;2023-04-10T03:52:46;102223.09;;;6.80;100.00
25498;BME280;13406;53.380;7.226;2023-04-10T03:55:14;102216.50;;;6.74;100.00
25498;BME280;13406;53.380;7.226;2023-04-10T03:57:44;102201.19;;;6.67;100.00
25498;BME280;13406;53.380;7.226;2023-04-10T04:00:11;102314.50;;;7.50;100.00
25498;BME280;13406;53.380;7.226;2023-04-10T04:02:36;102309.31;;;7.29;100.00
25498;BME280;13406;53.380;7.226;2023-04-10T04:05:02;102291.75;;;7.27;100.00
25498;BME280;13406;53.380;7.226;2023-04-10T04:07:27;102289.63;;;7.11;100.00
25498;BME280;13406;53.380;7.226;2023-04-10T04:09:53;102284.59;;;7.08;100.00
25498;BME280;13406;53.380;7.226;2023-04-10T04:12:19;102283.00;;;6.76;100.00
25498;BME280;13406;53.380;7.226;2023-04-10T04:14:44;102335.00;;;7.01;100.00
25498;BME280;13406;53.380;7.226;2023-04-10T04:17:10;102269.53;;;6.97;100.00
25498;BME280;13406;53.380;7.226;2023-04-10T04:19:36;102182.34;;;6.39;100.00
25498;BME280;13406;53.380;7.226;2023-04-10T04:22:01;102287.41;;;7.16;100.00
25498;BME280;13406;53.380;7.226;2023-04-10T04:24:27;102204.41;;;6.61;100.00
25498;BME280;13406;53.380;7.226;2023-04-10T04:26:52;102235.28;;;6.63;100.00
25498;BME280;13406;53.380;7.226;2023-04-10T04:29:18;102227.28;;;6.83;100.00
25498;BME280;13406;53.380;7.226;2023-04-10T04:31:43;102294.25;;;7.09;100.00
25498;BME280;13406;53.380;7.226;2023-04-10T04:34:08;102272.09;;;6.89;100.00
25498;BME280;13406;53.380;7.226;2023-04-10T04:36:34;102179.44;;;6.62;100.00
25498;BME280;13406;53.380;7.226;2023-04-10T04:38:59;102237.84;;;7.04;100.00
25498;BME280;13406;53.380;7.226;2023-04-10T04:41:25;102105.09;;;6.20;100.00
25498;BME280;13406;53.380;7.226;2023-04-10T04:43:50;102095.28;;;6.40;100.00
25498;BME280;13406;53.380;7.226;2023-04-10T04:46:17;102256.19;;;7.36;100.00
25498;BME280;13406;53.380;7.226;2023-04-10T04:48:43;102243.97;;;7.33;100.00
25498;BME280;13406;53.380;7.226;2023-04-10T04:51:08;102130.47;;;6.72;100.00
25498;BME280;13406;53.380;7.226;2023-04-10T04:53:33;102114.31;;;6.64;100.00
25498;BME280;13406;53.380;7.226;2023-04-10T04:55:59;102176.19;;;7.07;100.00
25498;BME280;13406;53.380;7.226;2023-04-10T04:58:24;102234.72;;;7.18;100.00
25498;BME280;13406;53.380;7.226;2023-04-10T05:00:51;102229.25;;;7.29;100.00
25498;BME280;13406;53.380;7.226;2023-04-10T05:03:16;102192.47;;;6.94;100.00
25498;BME280;13406;53.380;7.226;2023-04-10T05:05:42;102083.88;;;6.47;100.00
25498;BME280;13406;53.380;7.226;2023-04-10T05:08:07;102145.44;;;6.93;100.00
25498;BME280;13406;53.380;7.226;2023-04-10T05:10:33;102235.09;;;7.52;100.00
25498;BME280;13406;53.380;7.226;2023-04-10T05:12:58;102133.50;;;7.07;100.00
25498;BME280;13406;53.380;7.226;2023-04-10T05:15:24;102227.94;;;7.53;100.00
25498;BME280;13406;53.380;7.226;2023-04-10T05:17:49;102227.94;;;7.53;100.00
25498;BME280;13406;53.380;7.226;2023-04-10T05:20:17;102226.66;;;7.47;100.00
25498;BME280;13406;53.380;7.226;2023-04-10T05:22:43;102134.94;;;6.82;100.00
25498;BME280;13406;53.380;7.226;2023-04-10T05:25:08;101997.50;;;6.21;100.00
25498;BME280;13406;53.380;7.226;2023-04-10T05:27:35;102226.81;;;7.83;100.00
25498;BME280;13406;53.380;7.226;2023-04-10T05:30:01;102220.78;;;7.81;100.00
25498;BME280;13406;53.380;7.226;2023-04-10T05:32:26;102092.19;;;7.11;100.00
25498;BME280;13406;53.380;7.226;2023-04-10T05:34:52;102143.25;;;7.35;100.00
25498;BME280;13406;53.380;7.226;2023-04-10T05:37:17;102155.84;;;7.43;100.00
25498;BME280;13406;53.380;7.226;2023-04-10T05:39:42;102151.22;;;7.45;100.00
25498;BME280;13406;53.380;7.226;2023-04-10T05:42:08;102221.66;;;7.72;100.00
25498;BME280;13406;53.380;7.226;2023-04-10T05:44:33;102130.19;;;7.32;100.00
25498;BME280;13406;53.380;7.226;2023-04-10T05:46:59;102220.81;;;7.71;100.00
25498;BME280;13406;53.380;7.226;2023-04-10T05:49:24;102227.66;;;7.83;100.00
25498;BME280;13406;53.380;7.226;2023-04-10T05:51:49;102093.72;;;7.13;100.00
25498;BME280;13406;53.380;7.226;2023-04-10T05:54:16;102060.81;;;7.22;100.00
25498;BME280;13406;53.380;7.226;2023-04-10T05:56:42;102132.00;;;7.41;100.00
25498;BME280;13406;53.380;7.226;2023-04-10T05:59:07;102195.41;;;7.95;100.00
25498;BME280;13406;53.380;7.226;2023-04-10T06:01:33;102199.81;;;7.86;100.00
25498;BME280;13406;53.380;7.226;2023-04-10T06:03:58;102221.78;;;7.80;100.00
25498;BME280;13406;53.380;7.226;2023-04-10T06:06:24;102176.72;;;7.67;100.00
25498;BME280;13406;53.380;7.226;2023-04-10T06:08:51;102119.19;;;7.45;100.00
25498;BME280;13406;53.380;7.226;2023-04-10T06:11:16;102193.03;;;7.91;100.00
25498;BME280;13406;53.380;7.226;2023-04-10T06:13:42;102196.34;;;8.03;100.00
25498;BME280;13406;53.380;7.226;2023-04-10T06:16:07;102175.34;;;7.90;100.00
25498;BME280;13406;53.380;7.226;2023-04-10T06:18:33;102184.09;;;8.10;100.00
25498;BME280;13406;53.380;7.226;2023-04-10T06:20:58;102105.09;;;7.53;100.00
25498;BME280;13406;53.380;7.226;2023-04-10T06:23:26;102078.44;;;7.43;100.00
25498;BME280;13406;53.380;7.226;2023-04-10T06:25:55;102110.03;;;7.75;100.00
25498;BME280;13406;53.380;7.226;2023-04-10T06:28:21;102096.31;;;7.88;100.00
25498;BME280;13406;53.380;7.226;2023-04-10T06:30:46;102113.59;;;7.93;100.00
25498;BME280;13406;53.380;7.226;2023-04-10T06:33:12;102108.88;;;8.05;100.00
25498;BME280;13406;53.380;7.226;2023-04-10T06:35:37;102111.53;;;8.05;100.00
25498;BME280;13406;53.380;7.226;2023-04-10T06:38:03;102142.31;;;8.27;100.00
25498;BME280;13406;53.380;7.226;2023-04-10T06:40:28;102107.97;;;8.14;100.00
25498;BME280;13406;53.380;7.226;2023-04-10T06:42:55;102056.19;;;7.98;100.00
25498;BME280;13406;53.380;7.226;2023-04-10T06:45:20;102090.47;;;8.38;100.00
25498;BME280;13406;53.380;7.226;2023-04-10T06:47:46;102089.63;;;8.37;100.00
25498;BME280;13406;53.380;7.226;2023-04-10T06:50:11;102087.44;;;8.51;100.00
25498;BME280;13406;53.380;7.226;2023-04-10T06:52:37;102062.31;;;8.44;100.00
25498;BME280;13406;53.380;7.226;2023-04-10T06:55:02;102104.16;;;8.71;100.00
25498;BME280;13406;53.380;7.226;2023-04-10T06:57:28;102054.16;;;8.45;100.00
25498;BME280;13406;53.380;7.226;2023-04-10T06:59:54;102097.09;;;8.70;100.00
25498;BME280;13406;53.380;7.226;2023-04-10T07:02:19;102041.44;;;8.47;100.00
25498;BME280;13406;53.380;7.226;2023-04-10T07:04:44;102056.16;;;8.69;100.00
25498;BME280;13406;53.380;7.226;2023-04-10T07:07:10;102095.25;;;9.14;100.00
25498;BME280;13406;53.380;7.226;2023-04-10T07:09:38;102018.50;;;8.63;100.00
25498;BME280;13406;53.380;7.226;2023-04-10T07:12:04;101948.38;;;8.25;100.00
25498;BME280;13406;53.380;7.226;2023-04-10T07:14:31;102098.50;;;9.34;100.00
25498;BME280;13406;53.380;7.226;2023-04-10T07:16:57;102051.25;;;9.17;100.00
25498;BME280;13406;53.380;7.226;2023-04-10T07:19:23;101998.47;;;9.01;100.00
25498;BME280;13406;53.380;7.226;2023-04-10T07:21:48;102019.63;;;9.12;100.00
25498;BME280;13406;53.380;7.226;2023-04-10T07:24:17;101962.63;;;8.86;100.00
25498;BME280;13406;53.380;7.226;2023-04-10T07:26:45;101897.09;;;8.55;100.00
25498;BME280;13406;53.380;7.226;2023-04-10T07:29:14;102073.84;;;9.57;100.00
25498;BME280;13406;53.380;7.226;2023-04-10T07:31:40;101946.63;;;9.02;100.00
25498;BME280;13406;53.380;7.226;2023-04-10T07:34:06;102064.03;;;9.82;100.00
25498;BME280;13406;53.380;7.226;2023-04-10T07:36:31;102048.44;;;9.77;100.00
25498;BME280;13406;53.380;7.226;2023-04-10T07:38:57;101928.56;;;9.04;100.00
25498;BME280;13406;53.380;7.226;2023-04-10T07:41:22;101927.25;;;9.08;100.00
25498;BME280;13406;53.380;7.226;2023-04-10T07:43:48;102044.28;;;9.91;100.00
25498;BME280;13406;53.380;7.226;2023-04-10T07:46:14;102001.72;;;9.71;100.00
25498;BME280;13406;53.380;7.226;2023-04-10T07:48:39;101936.69;;;9.37;100.00
25498;BME280;13406;53.380;7.226;2023-04-10T07:51:05;101998.41;;;9.94;100.00
25498;BME280;13406;53.380;7.226;2023-04-10T07:53:34;101969.59;;;9.88;100.00
25498;BME280;13406;53.380;7.226;2023-04-10T07:56:00;101987.50;;;10.04;100.00
25498;BME280;13406;53.380;7.226;2023-04-10T07:58:26;101905.25;;;9.71;100.00
25498;BME280;13406;53.380;7.226;2023-04-10T08:00:51;101910.44;;;9.98;100.00
25498;BME280;13406;53.380;7.226;2023-04-10T08:03:16;101914.63;;;10.25;100.00
25498;BME280;13406;53.380;7.226;2023-04-10T08:05:42;101898.69;;;10.39;100.00
25498;BME280;13406;53.380;7.226;2023-04-10T08:08:07;101906.38;;;10.59;100.00
25498;BME280;13406;53.380;7.226;2023-04-10T08:10:35;101916.19;;;10.75;100.00
25498;BME280;13406;53.380;7.226;2023-04-10T08:13:02;101784.91;;;10.26;100.00
25498;BME280;13406;53.380;7.226;2023-04-10T08:15:27;101785.22;;;10.39;100.00
25498;BME280;13406;53.380;7.226;2023-04-10T08:17:53;101880.25;;;11.15;100.00
25498;BME280;13406;53.380;7.226;2023-04-10T08:20:18;101759.31;;;10.54;100.00
25498;BME280;13406;53.380;7.226;2023-04-10T08:22:43;101791.75;;;10.99;100.00
25498;BME280;13406;53.380;7.226;2023-04-10T08:25:09;101764.53;;;11.02;100.00
25498;BME280;13406;53.380;7.226;2023-04-10T08:27:35;101776.72;;;11.13;100.00
25498;BME280;13406;53.380;7.226;2023-04-10T08:30:00;101770.22;;;11.30;100.00
25498;BME280;13406;53.380;7.226;2023-04-10T08:32:26;101832.22;;;11.81;100.00
25498;BME280;13406;53.380;7.226;2023-04-10T08:34:52;101754.69;;;11.40;100.00
25498;BME280;13406;53.380;7.226;2023-04-10T08:37:17;101821.63;;;12.03;100.00
25498;BME280;13406;53.380;7.226;2023-04-10T08:39:44;101811.69;;;12.03;100.00
25498;BME280;13406;53.380;7.226;2023-04-10T08:42:09;101694.94;;;11.53;100.00
25498;BME280;13406;53.380;7.226;2023-04-10T08:44:35;101767.81;;;12.17;100.00
25498;BME280;13406;53.380;7.226;2023-04-10T08:47:01;101689.47;;;11.76;100.00
25498;BME280;13406;53.380;7.226;2023-04-10T08:51:57;101763.47;;;12.31;100.00
25498;BME280;13406;53.380;7.226;2023-04-10T08:54:34;101761.41;;;12.48;100.00
25498;BME280;13406;53.380;7.226;2023-04-10T08:57:02;101689.47;;;12.06;100.00
25498;BME280;13406;53.380;7.226;2023-04-10T08:59:30;101683.66;;;12.02;100.00
25498;BME280;13406;53.380;7.226;2023-04-10T09:01:56;101692.16;;;12.06;100.00
25498;BME280;13406;53.380;7.226;2023-04-10T09:04:23;101751.28;;;12.50;100.00
25498;BME280;13406;53.380;7.226;2023-04-10T09:06:49;101719.03;;;12.35;100.00
25498;BME280;13406;53.380;7.226;2023-04-10T09:09:14;101475.28;;;10.74;100.00
25498;BME280;13406;53.380;7.226;2023-04-10T09:14:30;101627.41;;;12.01;100.00
25498;BME280;13406;53.380;7.226;2023-04-10T09:17:16;101754.91;;;13.00;100.00
25498;BME280;13406;53.380;7.226;2023-04-10T09:19:46;101754.84;;;13.15;100.00
25498;BME280;13406;53.380;7.226;2023-04-10T09:22:13;101753.56;;;13.11;100.00
25498;BME280;13406;53.380;7.226;2023-04-10T09:24:40;101704.00;;;12.84;100.00
25498;BME280;13406;53.380;7.226;2023-04-10T09:27:07;101702.91;;;13.00;100.00
25498;BME280;13406;53.380;7.226;2023-04-10T09:29:46;101708.75;;;13.03;100.00
25498;BME280;13406;53.380;7.226;2023-04-10T09:34:59;101709.50;;;13.19;100.00
25498;BME280;13406;53.380;7.226;2023-04-10T09:37:32;101637.28;;;12.58;100.00
25498;BME280;13406;53.380;7.226;2023-04-10T09:39:58;101665.53;;;12.90;100.00
25498;BME280;13406;53.380;7.226;2023-04-10T09:42:31;101712.28;;;13.25;100.00
25498;BME280;13406;53.380;7.226;2023-04-10T09:44:57;101716.94;;;13.38;100.00
25498;BME280;13406;53.380;7.226;2023-04-10T09:47:23;101719.34;;;13.26;100.00
25498;BME280;13406;53.380;7.226;2023-04-10T09:49:50;101647.03;;;12.80;100.00
25498;BME280;13406;53.380;7.226;2023-04-10T09:52:29;101683.75;;;13.16;100.00
25498;BME280;13406;53.380;7.226;2023-04-10T09:54:59;101708.41;;;13.34;100.00
25498;BME280;13406;53.380;7.226;2023-04-10T09:57:28;101700.38;;;13.41;100.00
25498;BME280;13406;53.380;7.226;2023-04-10T09:59:59;101620.66;;;12.97;100.00
25498;BME280;13406;53.380;7.226;2023-04-10T10:02:27;101652.00;;;13.05;100.00
25498;BME280;13406;53.380;7.226;2023-04-10T10:04:53;101679.25;;;13.45;100.00
25498;BME280;13406;53.380;7.226;2023-04-10T10:07:21;101578.34;;;12.91;100.00
25498;BME280;13406;53.380;7.226;2023-04-10T10:09:49;101625.72;;;13.35;100.00
25498;BME280;13406;53.380;7.226;2023-04-10T10:12:17;101661.13;;;13.60;100.00
25498;BME280;13406;53.380;7.226;2023-04-10T10:14:57;101632.03;;;13.49;100.00
25498;BME280;13406;53.380;7.226;2023-04-10T10:17:29;101636.63;;;13.62;100.00
25498;BME280;13406;53.380;7.226;2023-04-10T10:20:01;101640.00;;;13.70;100.00
25498;BME280;13406;53.380;7.226;2023-04-10T10:22:28;101572.50;;;13.44;100.00
25498;BME280;13406;53.380;7.226;2023-04-10T10:24:55;101547.84;;;13.47;100.00
25498;BME280;13406;53.380;7.226;2023-04-10T10:27:22;101608.78;;;13.89;100.00
25498;BME280;13406;53.380;7.226;2023-04-10T10:29:49;101577.00;;;13.85;100.00
25498;BME280;13406;53.380;7.226;2023-04-10T10:32:17;101589.50;;;13.92;100.00
25498;BME280;13406;53.380;7.226;2023-04-10T10:34:43;101519.09;;;13.67;100.00
25498;BME280;13406;53.380;7.226;2023-04-10T10:37:10;101511.06;;;13.94;100.00
25498;BME280;13406;53.380;7.226;2023-04-10T10:44:59;101569.47;;;14.48;100.00
25498;BME280;13406;53.380;7.226;2023-04-10T10:47:31;101471.84;;;13.91;100.00
25498;BME280;13406;53.380;7.226;2023-04-10T10:50:00;101528.34;;;14.39;100.00
25498;BME280;13406;53.380;7.226;2023-04-10T10:58:05;101540.81;;;14.94;100.00
25498;BME280;13406;53.380;7.226;2023-04-10T11:05:50;101532.91;;;14.99;100.00
25498;BME280;13406;53.380;7.226;2023-04-10T11:08:17;101487.88;;;14.73;100.00
25498;BME280;13406;53.380;7.226;2023-04-10T11:11:13;101493.88;;;14.81;100.00
25498;BME280;13406;53.380;7.226;2023-04-10T11:19:03;101357.75;;;14.04;100.00
25498;BME280;13406;53.380;7.226;2023-04-10T11:21:29;101504.44;;;14.96;100.00
25498;BME280;13406;53.380;7.226;2023-04-10T11:32:03;101478.09;;;14.78;100.00
25498;BME280;13406;53.380;7.226;2023-04-10T11:34:29;101393.63;;;14.24;100.00
25498;BME280;13406;53.380;7.226;2023-04-10T11:37:00;101428.28;;;14.54;100.00
25498;BME280;13406;53.380;7.226;2023-04-10T11:39:28;101469.56;;;14.81;100.00
25498;BME280;13406;53.380;7.226;2023-04-10T11:41:54;101443.88;;;14.59;100.00
25498;BME280;13406;53.380;7.226;2023-04-10T11:46:51;101415.56;;;14.75;100.00
25498;BME280;13406;53.380;7.226;2023-04-10T11:49:18;101365.97;;;14.49;100.00
25498;BME280;13406;53.380;7.226;2023-04-10T11:51:46;101337.59;;;14.33;100.00
25498;BME280;13406;53.380;7.226;2023-04-10T11:54:14;101434.56;;;15.06;100.00
25498;BME280;13406;53.380;7.226;2023-04-10T11:56:42;101425.44;;;15.01;100.00
25498;BME280;13406;53.380;7.226;2023-04-10T11:59:08;101421.50;;;15.03;100.00
25498;BME280;13406;53.380;7.226;2023-04-10T12:01:43;101425.00;;;15.10;100.00
25498;BME280;13406;53.380;7.226;2023-04-10T12:04:19;101416.72;;;15.05;100.00
25498;BME280;13406;53.380;7.226;2023-04-10T12:06:51;101290.88;;;14.33;100.00
25498;BME280;13406;53.380;7.226;2023-04-10T12:09:18;101433.34;;;15.02;100.00
25498;BME280;13406;53.380;7.226;2023-04-10T12:11:53;101404.25;;;15.04;100.00
25498;BME280;13406;53.380;7.226;2023-04-10T12:14:20;101406.09;;;15.10;100.00
25498;BME280;13406;53.380;7.226;2023-04-10T12:16:47;101389.75;;;14.92;100.00
25498;BME280;13406;53.380;7.226;2023-04-10T12:19:13;101382.88;;;14.96;100.00
25498;BME280;13406;53.380;7.226;2023-04-10T12:21:41;101394.25;;;15.11;100.00
25498;BME280;13406;53.380;7.226;2023-04-10T12:24:07;101367.13;;;14.93;100.00
25498;BME280;13406;53.380;7.226;2023-04-10T12:26:33;101349.88;;;14.87;100.00
25498;BME280;13406;53.380;7.226;2023-04-10T12:28:58;101380.09;;;15.16;100.00
25498;BME280;13406;53.380;7.226;2023-04-10T12:31:33;101380.09;;;15.16;100.00
25498;BME280;13406;53.380;7.226;2023-04-10T12:34:02;101345.66;;;15.05;100.00
25498;BME280;13406;53.380;7.226;2023-04-10T12:36:31;101365.03;;;15.27;100.00
25498;BME280;13406;53.380;7.226;2023-04-10T12:39:00;101397.31;;;15.22;100.00
25498;BME280;13406;53.380;7.226;2023-04-10T12:41:28;101357.56;;;15.29;100.00
25498;BME280;13406;53.380;7.226;2023-04-10T12:44:06;101350.03;;;15.37;100.00
25498;BME280;13406;53.380;7.226;2023-04-10T12:46:32;101292.56;;;15.17;100.00
25498;BME280;13406;53.380;7.226;2023-04-10T12:49:13;101348.56;;;15.67;100.00
25498;BME280;13406;53.380;7.226;2023-04-10T12:51:46;101336.88;;;15.73;100.00
25498;BME280;13406;53.380;7.226;2023-04-10T12:54:32;101342.25;;;15.79;100.00
25498;BME280;13406;53.380;7.226;2023-04-10T12:56:59;101326.06;;;15.98;100.00
25498;BME280;13406;53.380;7.226;2023-04-10T12:59:26;101320.66;;;16.16;100.00
25498;BME280;13406;53.380;7.226;2023-04-10T13:01:52;101295.25;;;15.99;100.00
25498;BME280;13406;53.380;7.226;2023-04-10T13:04:18;101292.56;;;16.17;100.00
25498;BME280;13406;53.380;7.226;2023-04-10T13:06:45;101307.97;;;16.35;100.00
25498;BME280;13406;53.380;7.226;2023-04-10T13:09:12;101243.84;;;15.99;100.00
25498;BME280;13406;53.380;7.226;2023-04-10T13:11:39;101289.63;;;16.00;100.00
25498;BME280;13406;53.380;7.226;2023-04-10T13:14:04;101288.19;;;15.98;100.00
25498;BME280;13406;53.380;7.226;2023-04-10T13:16:30;101245.38;;;15.70;100.00
25498;BME280;13406;53.380;7.226;2023-04-10T13:18:55;101277.44;;;15.91;100.00
25498;BME280;13406;53.380;7.226;2023-04-10T13:21:20;101239.06;;;15.76;100.00
25498;BME280;13406;53.380;7.226;2023-04-10T13:23:50;101257.91;;;15.89;100.00
25498;BME280;13406;53.380;7.226;2023-04-10T13:26:16;101190.66;;;15.24;100.00
25498;BME280;13406;53.380;7.226;2023-04-10T13:28:41;101199.84;;;15.42;100.00
25498;BME280;13406;53.380;7.226;2023-04-10T13:31:06;101233.53;;;15.64;100.00
25498;BME280;13406;53.380;7.226;2023-04-10T13:33:32;101178.91;;;15.37;100.00
25498;BME280;13406;53.380;7.226;2023-04-10T13:35:57;101233.75;;;15.69;100.00